Time,TemperatureF,DewpointF,PressureIn,WindDirection,WindDirectionDegrees,WindSpeedMPH,WindSpeedGustMPH,Humidity,HourlyPrecipIn,Conditions,Clouds,dailyrainin,SoftwareType,DateUTC
2013-05-07 00:03:00,60.3,53.7,29.76,NW,315,3.0,3.0,79,0.00,,---,0.00,VWS V14.00,2013-05-07 05:03:00,
2013-05-07 00:09:00,60.3,53.7,29.76,NW,315,2.4,2.5,79,0.00,,---,0.00,VWS V14.00,2013-05-07 05:09:00,
2013-05-07 00:14:00,60.3,53.7,29.76,North,0,4.4,4.4,79,0.00,,---,0.00,VWS V14.00,2013-05-07 05:14:00,
2013-05-07 00:19:00,60.1,53.6,29.76,NNW,338,2.1,2.1,79,0.00,,---,0.00,VWS V14.00,2013-05-07 05:19:00,
2013-05-07 00:24:00,60.1,53.6,29.76,NNW,338,3.0,3.0,79,0.00,,---,0.00,VWS V14.00,2013-05-07 05:24:00,
2013-05-07 00:30:00,60.1,53.6,29.76,NNW,338,2.7,2.7,79,0.00,,---,0.00,VWS V14.00,2013-05-07 05:30:00,
2013-05-07 00:35:00,59.9,53.4,29.76,NNW,338,3.0,3.0,79,0.00,,---,0.00,VWS V14.00,2013-05-07 05:35:00,
2013-05-07 00:40:00,59.7,53.2,29.76,NNW,338,3.0,3.0,79,0.00,,---,0.00,VWS V14.00,2013-05-07 05:40:00,
2013-05-07 00:45:00,59.5,53.0,29.76,NNW,338,1.0,0.0,79,0.00,,---,0.00,VWS V14.00,2013-05-07 05:45:00,
2013-05-07 00:51:00,59.4,52.9,29.74,NNW,338,1.0,0.0,79,0.00,,---,0.00,VWS V14.00,2013-05-07 05:51:00,
2013-05-07 00:56:00,59.0,52.8,29.74,NNW,338,1.0,0.0,80,0.00,,---,0.00,VWS V14.00,2013-05-07 05:56:00,
2013-05-07 01:01:00,58.6,52.5,29.74,NNW,338,1.0,0.0,80,0.00,,---,0.00,VWS V14.00,2013-05-07 06:01:00,
2013-05-07 01:06:00,58.5,52.7,29.74,WNW,292,4.1,4.1,81,0.00,,---,0.00,VWS V14.00,2013-05-07 06:06:00,
2013-05-07 01:12:00,58.3,52.5,29.74,West,270,1.0,0.0,81,0.00,,---,0.00,VWS V14.00,2013-05-07 06:12:00,
2013-05-07 01:18:00,58.1,52.3,29.74,West,270,1.0,0.0,81,0.00,,---,0.00,VWS V14.00,2013-05-07 06:18:00,
2013-05-07 01:24:00,57.9,52.5,29.74,WNW,292,1.0,1.3,82,0.00,,---,0.00,VWS V14.00,2013-05-07 06:24:00,
2013-05-07 01:29:00,57.7,52.3,29.74,WNW,292,1.0,1.1,82,0.00,,---,0.00,VWS V14.00,2013-05-07 06:29:00,
2013-05-07 01:34:00,57.6,52.1,29.74,WNW,292,2.1,2.1,82,0.00,,---,0.00,VWS V14.00,2013-05-07 06:34:00,
2013-05-07 01:40:00,57.2,51.8,29.74,WNW,292,1.0,1.1,82,0.00,,---,0.00,VWS V14.00,2013-05-07 06:40:00,
2013-05-07 01:45:00,57.0,51.9,29.74,North,0,4.1,4.1,83,0.00,,---,0.00,VWS V14.00,2013-05-07 06:45:00,
2013-05-07 01:50:00,57.0,51.9,29.74,NW,315,1.0,1.1,83,0.00,,---,0.00,VWS V14.00,2013-05-07 06:50:00,
2013-05-07 01:56:00,56.8,52.1,29.74,NW,315,1.0,0.0,84,0.00,,---,0.00,VWS V14.00,2013-05-07 06:56:00,
2013-05-07 02:01:00,56.8,52.1,29.74,NW,315,1.0,0.0,84,0.00,,---,0.00,VWS V14.00,2013-05-07 07:01:00,
2013-05-07 02:06:00,56.7,51.9,29.74,NW,315,1.0,0.0,84,0.00,,---,0.00,VWS V14.00,2013-05-07 07:06:00,
2013-05-07 02:11:00,56.5,52.0,29.74,NW,315,1.0,0.0,85,0.00,,---,0.00,VWS V14.00,2013-05-07 07:11:00,
2013-05-07 02:16:00,56.3,51.9,29.74,NW,315,1.0,0.0,85,0.00,,---,0.00,VWS V14.00,2013-05-07 07:16:00,
2013-05-07 02:22:00,56.1,51.7,29.74,NW,315,1.0,0.0,85,0.00,,---,0.00,VWS V14.00,2013-05-07 07:22:00,
2013-05-07 02:27:00,56.3,51.9,29.74,NNW,338,4.1,4.1,85,0.00,,---,0.00,VWS V14.00,2013-05-07 07:27:00,
2013-05-07 02:32:00,56.3,51.9,29.74,NW,315,2.1,2.5,85,0.00,,---,0.00,VWS V14.00,2013-05-07 07:32:00,
2013-05-07 02:37:00,56.3,52.2,29.74,NW,315,1.0,2.7,86,0.00,,---,0.00,VWS V14.00,2013-05-07 07:37:00,
2013-05-07 02:43:00,56.5,52.7,29.74,NW,315,1.0,4.7,87,0.00,,---,0.00,VWS V14.00,2013-05-07 07:43:00,
2013-05-07 02:48:00,56.5,52.7,29.74,WNW,292,3.0,3.0,87,0.00,,---,0.00,VWS V14.00,2013-05-07 07:48:00,
2013-05-07 02:54:00,56.5,53.0,29.74,NW,315,4.4,4.4,88,0.00,,---,0.00,VWS V14.00,2013-05-07 07:54:00,
2013-05-07 02:59:00,56.5,53.0,29.74,NW,315,1.0,2.0,88,0.00,,---,0.00,VWS V14.00,2013-05-07 07:59:00,
2013-05-07 03:04:00,56.5,53.3,29.74,NW,315,1.0,2.5,89,0.00,,---,0.00,VWS V14.00,2013-05-07 08:04:00,
2013-05-07 03:09:00,56.3,53.1,29.74,NW,315,4.4,4.4,89,0.00,,---,0.00,VWS V14.00,2013-05-07 08:09:00,
2013-05-07 03:14:00,56.3,53.1,29.74,WNW,292,3.0,3.0,89,0.00,,---,0.00,VWS V14.00,2013-05-07 08:14:00,
2013-05-07 03:19:00,56.3,53.1,29.76,WNW,292,1.0,1.3,89,0.00,,---,0.00,VWS V14.00,2013-05-07 08:19:00,
2013-05-07 03:24:00,56.3,53.1,29.76,NW,315,3.0,3.0,89,0.00,,---,0.00,VWS V14.00,2013-05-07 08:24:00,
2013-05-07 03:30:00,56.1,52.9,29.76,NNW,338,2.4,2.4,89,0.00,,---,0.00,VWS V14.00,2013-05-07 08:30:00,
2013-05-07 03:36:00,56.1,52.9,29.74,NW,315,1.0,1.1,89,0.00,,---,0.00,VWS V14.00,2013-05-07 08:36:00,
2013-05-07 03:41:00,55.9,52.8,29.74,NW,315,1.0,0.0,89,0.00,,---,0.00,VWS V14.00,2013-05-07 08:41:00,
2013-05-07 03:46:00,55.8,52.6,29.74,NW,315,2.7,2.7,89,0.00,,---,0.00,VWS V14.00,2013-05-07 08:46:00,
2013-05-07 03:51:00,55.6,52.4,29.74,NNW,338,3.0,3.0,89,0.00,,---,0.00,VWS V14.00,2013-05-07 08:51:00,
2013-05-07 03:56:00,55.6,52.4,29.74,NNW,338,3.5,3.5,89,0.00,,---,0.00,VWS V14.00,2013-05-07 08:56:00,
2013-05-07 04:01:00,55.6,52.4,29.74,NNW,338,1.0,0.0,89,0.00,,---,0.00,VWS V14.00,2013-05-07 09:01:00,
2013-05-07 04:07:00,55.4,52.5,29.74,WNW,292,4.1,4.1,90,0.00,,---,0.00,VWS V14.00,2013-05-07 09:07:00,
2013-05-07 04:12:00,55.4,52.5,29.74,NNE,22,1.0,1.3,90,0.00,,---,0.00,VWS V14.00,2013-05-07 09:12:00,
2013-05-07 04:17:00,55.6,52.7,29.74,North,0,2.4,2.9,90,0.00,,---,0.00,VWS V14.00,2013-05-07 09:17:00,
2013-05-07 04:22:00,55.6,52.7,29.74,NW,315,2.4,2.7,90,0.00,,---,0.00,VWS V14.00,2013-05-07 09:22:00,
2013-05-07 04:29:00,55.6,52.7,29.74,NW,315,2.7,2.7,90,0.00,,---,0.00,VWS V14.00,2013-05-07 09:29:00,
2013-05-07 04:34:00,55.8,52.9,29.74,NNW,338,4.4,4.4,90,0.00,,---,0.00,VWS V14.00,2013-05-07 09:34:00,
2013-05-07 04:40:00,55.8,52.9,29.74,NNE,22,3.5,3.5,90,0.00,,---,0.00,VWS V14.00,2013-05-07 09:40:00,
2013-05-07 04:45:00,55.8,52.9,29.74,NNW,338,3.0,3.0,90,0.00,,---,0.00,VWS V14.00,2013-05-07 09:45:00,
2013-05-07 04:50:00,55.8,52.9,29.74,North,0,2.1,2.2,90,0.00,,---,0.00,VWS V14.00,2013-05-07 09:50:00,
2013-05-07 04:56:00,55.8,52.9,29.74,NNW,338,2.4,2.4,90,0.00,,---,0.00,VWS V14.00,2013-05-07 09:56:00,
2013-05-07 05:02:00,55.8,52.9,29.76,NNW,338,2.7,3.1,90,0.00,,---,0.00,VWS V14.00,2013-05-07 10:02:00,
2013-05-07 05:07:00,55.6,52.7,29.76,NW,315,2.4,2.9,90,0.00,,---,0.00,VWS V14.00,2013-05-07 10:07:00,
2013-05-07 05:13:00,55.6,52.7,29.76,NW,315,2.1,2.5,90,0.00,,---,0.00,VWS V14.00,2013-05-07 10:13:00,
2013-05-07 05:18:00,55.8,52.9,29.74,North,0,1.0,2.5,90,0.00,,---,0.00,VWS V14.00,2013-05-07 10:18:00,
2013-05-07 05:24:00,55.8,52.9,29.74,NNE,22,5.2,5.2,90,0.00,,---,0.00,VWS V14.00,2013-05-07 10:24:00,
2013-05-07 05:29:00,55.8,52.9,29.74,NNW,338,3.8,3.8,90,0.00,,---,0.00,VWS V14.00,2013-05-07 10:29:00,
2013-05-07 05:34:00,55.8,52.9,29.74,NNW,338,4.1,4.1,90,0.00,,---,0.00,VWS V14.00,2013-05-07 10:34:00,
2013-05-07 05:40:00,55.8,52.9,29.74,North,0,5.2,5.2,90,0.00,,---,0.00,VWS V14.00,2013-05-07 10:40:00,
2013-05-07 05:45:00,55.8,52.9,29.74,NW,315,4.1,4.1,90,0.00,,---,0.00,VWS V14.00,2013-05-07 10:45:00,
2013-05-07 05:51:00,55.9,53.0,29.74,NNW,338,6.0,6.0,90,0.00,,---,0.00,VWS V14.00,2013-05-07 10:51:00,
2013-05-07 05:57:00,55.8,52.9,29.74,North,0,2.4,2.4,90,0.00,,---,0.00,VWS V14.00,2013-05-07 10:57:00,
2013-05-07 06:02:00,55.6,52.4,29.76,NW,315,2.4,2.4,89,0.00,,---,0.00,VWS V14.00,2013-05-07 11:02:00,
2013-05-07 06:07:00,55.6,52.4,29.76,North,0,4.1,4.1,89,0.00,,---,0.00,VWS V14.00,2013-05-07 11:07:00,
2013-05-07 06:13:00,55.4,52.2,29.76,NNW,338,5.2,5.2,89,0.00,,---,0.00,VWS V14.00,2013-05-07 11:13:00,
2013-05-07 06:18:00,55.4,52.2,29.76,NNW,338,1.0,0.0,89,0.00,,---,0.00,VWS V14.00,2013-05-07 11:18:00,
2013-05-07 06:23:00,55.4,52.2,29.76,NW,315,3.8,3.8,89,0.00,,---,0.00,VWS V14.00,2013-05-07 11:23:00,
2013-05-07 06:28:00,55.6,52.4,29.76,North,0,2.4,2.4,89,0.00,,---,0.00,VWS V14.00,2013-05-07 11:28:00,
2013-05-07 06:34:00,55.9,53.0,29.76,NNW,338,3.0,3.0,90,0.00,,---,0.00,VWS V14.00,2013-05-07 11:34:00,
2013-05-07 06:39:00,56.1,52.9,29.76,NNW,338,1.0,0.0,89,0.00,,---,0.00,VWS V14.00,2013-05-07 11:39:00,
2013-05-07 06:45:00,56.3,53.1,29.76,North,0,1.0,2.0,89,0.00,,---,0.00,VWS V14.00,2013-05-07 11:45:00,
2013-05-07 06:51:00,56.5,53.3,29.76,North,0,3.8,3.8,89,0.00,,---,0.00,VWS V14.00,2013-05-07 11:51:00,
2013-05-07 06:56:00,56.7,53.5,29.76,NNE,22,3.0,3.0,89,0.00,,---,0.00,VWS V14.00,2013-05-07 11:56:00,
2013-05-07 07:02:00,57.0,53.8,29.76,North,0,2.7,2.9,89,0.00,,---,0.00,VWS V14.00,2013-05-07 12:02:00,
2013-05-07 07:07:00,57.4,54.2,29.76,NNW,338,4.1,4.1,89,0.00,,---,0.00,VWS V14.00,2013-05-07 12:07:00,
2013-05-07 07:12:00,57.6,54.0,29.76,North,0,2.1,3.4,88,0.00,,---,0.00,VWS V14.00,2013-05-07 12:12:00,
2013-05-07 07:18:00,57.9,54.4,29.76,NNW,338,4.1,4.1,88,0.00,,---,0.00,VWS V14.00,2013-05-07 12:18:00,
2013-05-07 07:23:00,58.3,54.8,29.76,North,0,4.1,4.1,88,0.00,,---,0.00,VWS V14.00,2013-05-07 12:23:00,
2013-05-07 07:28:00,58.6,54.8,29.76,NW,315,4.1,4.1,87,0.00,,---,0.00,VWS V14.00,2013-05-07 12:28:00,
2013-05-07 07:33:00,59.0,55.1,29.76,NNW,338,4.1,4.1,87,0.00,,---,0.00,VWS V14.00,2013-05-07 12:33:00,
2013-05-07 07:38:00,59.4,55.2,29.76,North,0,2.7,2.7,86,0.00,,---,0.00,VWS V14.00,2013-05-07 12:38:00,
2013-05-07 07:44:00,59.7,55.2,29.76,North,0,4.1,4.1,85,0.00,,---,0.00,VWS V14.00,2013-05-07 12:44:00,
2013-05-07 07:50:00,60.1,55.2,29.76,NNW,338,3.0,3.6,84,0.00,,---,0.00,VWS V14.00,2013-05-07 12:50:00,
2013-05-07 07:55:00,60.4,55.3,29.76,North,0,5.2,5.2,83,0.00,,---,0.00,VWS V14.00,2013-05-07 12:55:00,
2013-05-07 08:01:00,61.0,55.5,29.76,NE,45,6.0,6.0,82,0.00,,---,0.00,VWS V14.00,2013-05-07 13:01:00,
2013-05-07 08:07:00,61.3,55.5,29.79,North,0,8.0,8.0,81,0.00,,---,0.00,VWS V14.00,2013-05-07 13:07:00,
2013-05-07 08:12:00,61.5,55.6,29.79,North,0,4.6,4.6,81,0.00,,---,0.00,VWS V14.00,2013-05-07 13:12:00,
2013-05-07 08:17:00,61.9,55.7,29.79,NW,315,3.8,4.3,80,0.00,,---,0.00,VWS V14.00,2013-05-07 13:17:00,
2013-05-07 08:23:00,62.2,56.0,29.79,NW,315,4.9,4.9,80,0.00,,---,0.00,VWS V14.00,2013-05-07 13:23:00,
2013-05-07 08:28:00,62.6,56.0,29.79,NNW,338,3.5,5.8,79,0.00,,---,0.00,VWS V14.00,2013-05-07 13:28:00,
2013-05-07 08:33:00,62.8,55.8,29.79,NNW,338,6.9,6.9,78,0.00,,---,0.00,VWS V14.00,2013-05-07 13:33:00,
2013-05-07 08:38:00,63.0,55.7,29.79,North,0,6.0,6.0,77,0.00,,---,0.00,VWS V14.00,2013-05-07 13:38:00,
2013-05-07 08:43:00,63.5,56.2,29.79,North,0,7.2,7.2,77,0.00,,---,0.00,VWS V14.00,2013-05-07 13:43:00,
2013-05-07 08:48:00,63.5,55.8,29.79,North,0,6.0,6.0,76,0.00,,---,0.00,VWS V14.00,2013-05-07 13:48:00,
2013-05-07 08:54:00,63.9,56.2,29.79,NNE,22,5.2,5.2,76,0.00,,---,0.00,VWS V14.00,2013-05-07 13:54:00,
2013-05-07 09:00:00,64.0,56.0,29.79,North,0,7.7,7.7,75,0.00,,---,0.00,VWS V14.00,2013-05-07 14:00:00,
2013-05-07 09:05:00,64.2,56.1,29.79,North,0,4.1,4.1,75,0.00,,---,0.00,VWS V14.00,2013-05-07 14:05:00,
2013-05-07 09:10:00,64.4,55.9,29.79,North,0,1.0,0.0,74,0.00,,---,0.00,VWS V14.00,2013-05-07 14:10:00,
2013-05-07 09:16:00,64.9,56.5,29.79,NW,315,4.1,4.1,74,0.00,,---,0.00,VWS V14.00,2013-05-07 14:16:00,
2013-05-07 09:21:00,65.3,56.4,29.79,North,0,5.2,5.2,73,0.00,,---,0.00,VWS V14.00,2013-05-07 14:21:00,
2013-05-07 09:26:00,65.5,56.6,29.79,SE,135,3.8,3.8,73,0.00,,---,0.00,VWS V14.00,2013-05-07 14:26:00,
2013-05-07 09:32:00,66.2,57.3,29.79,NNW,338,1.0,1.1,73,0.00,,---,0.00,VWS V14.00,2013-05-07 14:32:00,
2013-05-07 09:38:00,66.4,56.7,29.79,ESE,112,4.4,4.4,71,0.00,,---,0.00,VWS V14.00,2013-05-07 14:38:00,
2013-05-07 09:44:00,66.9,57.2,29.79,SSW,202,4.1,4.1,71,0.00,,---,0.00,VWS V14.00,2013-05-07 14:44:00,
2013-05-07 09:50:00,67.1,57.0,29.79,East,90,3.8,3.8,70,0.00,,---,0.00,VWS V14.00,2013-05-07 14:50:00,
2013-05-07 09:55:00,67.3,56.8,29.79,WNW,292,2.4,2.4,69,0.00,,---,0.00,VWS V14.00,2013-05-07 14:55:00,
2013-05-07 10:01:00,67.6,57.1,29.79,ESE,112,4.4,4.4,69,0.00,,---,0.00,VWS V14.00,2013-05-07 15:01:00,
2013-05-07 10:06:00,68.2,57.6,29.79,North,0,2.7,2.7,69,0.00,,---,0.00,VWS V14.00,2013-05-07 15:06:00,
2013-05-07 10:11:00,68.7,57.3,29.79,WSW,248,4.9,4.9,67,0.00,,---,0.00,VWS V14.00,2013-05-07 15:11:00,
2013-05-07 10:16:00,69.1,57.3,29.79,NNW,338,5.8,5.8,66,0.00,,---,0.00,VWS V14.00,2013-05-07 15:16:00,
2013-05-07 10:21:00,69.6,57.3,29.79,NNW,338,3.5,3.8,65,0.00,,---,0.00,VWS V14.00,2013-05-07 15:21:00,
2013-05-07 10:26:00,69.8,57.1,29.79,North,0,5.8,5.8,64,0.00,,---,0.00,VWS V14.00,2013-05-07 15:26:00,
2013-05-07 10:32:00,70.2,56.1,29.79,North,0,7.7,7.7,61,0.00,,---,0.00,VWS V14.00,2013-05-07 15:32:00,
2013-05-07 10:38:00,70.5,54.6,29.79,North,0,6.3,8.5,57,0.00,,---,0.00,VWS V14.00,2013-05-07 15:38:00,
2013-05-07 10:43:00,70.3,53.4,29.79,NW,315,3.5,3.8,55,0.00,,---,0.00,VWS V14.00,2013-05-07 15:43:00,
2013-05-07 10:48:00,70.2,54.2,29.79,NNW,338,3.5,3.5,57,0.00,,---,0.00,VWS V14.00,2013-05-07 15:48:00,
2013-05-07 10:53:00,70.7,54.7,29.79,NNW,338,3.0,3.1,57,0.00,,---,0.00,VWS V14.00,2013-05-07 15:53:00,
2013-05-07 10:58:00,70.9,54.4,29.79,SSE,158,2.7,4.9,56,0.00,,---,0.00,VWS V14.00,2013-05-07 15:58:00,
2013-05-07 11:03:00,70.9,53.9,29.79,NW,315,2.4,2.4,55,0.00,,---,0.00,VWS V14.00,2013-05-07 16:03:00,
2013-05-07 11:09:00,70.9,53.4,29.79,NE,45,4.4,4.4,54,0.00,,---,0.00,VWS V14.00,2013-05-07 16:09:00,
2013-05-07 11:14:00,70.9,53.4,29.79,NNE,22,4.6,4.6,54,0.00,,---,0.00,VWS V14.00,2013-05-07 16:14:00,
2013-05-07 11:20:00,71.1,52.0,29.82,SE,135,8.3,8.3,51,0.00,,---,0.00,VWS V14.00,2013-05-07 16:20:00,
2013-05-07 11:25:00,71.2,52.7,29.82,SW,225,2.7,2.9,52,0.00,,---,0.00,VWS V14.00,2013-05-07 16:25:00,
2013-05-07 11:30:00,71.6,52.5,29.82,NNW,338,3.5,4.3,51,0.00,,---,0.00,VWS V14.00,2013-05-07 16:30:00,
2013-05-07 11:35:00,72.0,53.4,29.82,ESE,112,3.0,3.0,52,0.00,,---,0.00,VWS V14.00,2013-05-07 16:35:00,
2013-05-07 11:40:00,72.3,53.2,29.82,WSW,248,3.8,3.8,51,0.00,,---,0.00,VWS V14.00,2013-05-07 16:40:00,
2013-05-07 11:45:00,72.7,54.6,29.82,NNW,338,5.5,5.5,53,0.00,,---,0.00,VWS V14.00,2013-05-07 16:45:00,
2013-05-07 11:50:00,72.9,53.7,29.79,SW,225,3.5,3.5,51,0.00,,---,0.00,VWS V14.00,2013-05-07 16:50:00,
2013-05-07 11:56:00,73.4,53.1,29.79,NW,315,2.7,2.9,49,0.00,,---,0.00,VWS V14.00,2013-05-07 16:56:00,
2013-05-07 12:02:00,72.5,51.2,29.79,ESE,112,3.5,4.0,47,0.00,,---,0.00,VWS V14.00,2013-05-07 17:02:00,
2013-05-07 12:07:00,72.3,51.5,29.79,WSW,248,5.8,5.8,48,0.00,,---,0.00,VWS V14.00,2013-05-07 17:07:00,
2013-05-07 12:12:00,72.3,51.5,29.79,North,0,4.6,4.6,48,0.00,,---,0.00,VWS V14.00,2013-05-07 17:12:00,
2013-05-07 12:17:00,72.5,51.7,29.79,NNW,338,4.4,4.4,48,0.00,,---,0.00,VWS V14.00,2013-05-07 17:17:00,
2013-05-07 12:22:00,72.3,52.7,29.79,NW,315,3.8,3.8,50,0.00,,---,0.00,VWS V14.00,2013-05-07 17:22:00,
2013-05-07 12:27:00,72.0,52.3,29.79,NNW,338,5.5,5.5,50,0.00,,---,0.00,VWS V14.00,2013-05-07 17:27:00,
2013-05-07 12:32:00,72.1,53.0,29.79,North,0,3.5,3.5,51,0.00,,---,0.00,VWS V14.00,2013-05-07 17:32:00,
2013-05-07 12:38:00,72.7,54.6,29.79,NW,315,3.8,3.8,53,0.00,,---,0.00,VWS V14.00,2013-05-07 17:38:00,
2013-05-07 12:43:00,72.5,53.9,29.79,North,0,8.0,8.0,52,0.00,,---,0.00,VWS V14.00,2013-05-07 17:43:00,
2013-05-07 12:48:00,72.0,52.9,29.79,NNW,338,4.4,4.4,51,0.00,,---,0.00,VWS V14.00,2013-05-07 17:48:00,
2013-05-07 12:53:00,72.7,54.1,29.79,SSE,158,3.0,3.8,52,0.00,,---,0.00,VWS V14.00,2013-05-07 17:53:00,
2013-05-07 12:59:00,74.1,55.9,29.79,NNW,338,4.1,4.1,53,0.00,,---,0.00,VWS V14.00,2013-05-07 17:59:00,
2013-05-07 13:04:00,73.2,53.5,29.79,NNW,338,7.2,7.2,50,0.00,,---,0.00,VWS V14.00,2013-05-07 18:04:00,
2013-05-07 13:10:00,72.7,53.0,29.79,NNE,22,4.4,4.4,50,0.00,,---,0.00,VWS V14.00,2013-05-07 18:10:00,
2013-05-07 13:15:00,72.5,53.4,29.79,West,270,2.7,3.1,51,0.00,,---,0.00,VWS V14.00,2013-05-07 18:15:00,
2013-05-07 13:20:00,72.3,52.7,29.79,East,90,3.5,3.5,50,0.00,,---,0.00,VWS V14.00,2013-05-07 18:20:00,
2013-05-07 13:25:00,72.3,53.2,29.79,SW,225,5.5,5.5,51,0.00,,---,0.00,VWS V14.00,2013-05-07 18:25:00,
2013-05-07 13:30:00,72.7,54.1,29.79,SE,135,6.0,6.0,52,0.00,,---,0.00,VWS V14.00,2013-05-07 18:30:00,
2013-05-07 13:35:00,73.6,55.4,29.79,SSW,202,4.4,4.4,53,0.00,,---,0.00,VWS V14.00,2013-05-07 18:35:00,
2013-05-07 13:40:00,74.3,56.1,29.79,WSW,248,4.1,4.1,53,0.00,,---,0.00,VWS V14.00,2013-05-07 18:40:00,
2013-05-07 13:46:00,74.7,54.8,29.79,North,0,4.6,4.6,50,0.00,,---,0.00,VWS V14.00,2013-05-07 18:46:00,
2013-05-07 13:51:00,74.5,52.4,29.79,NNW,338,2.7,2.7,46,0.00,,---,0.00,VWS V14.00,2013-05-07 18:51:00,
2013-05-07 13:56:00,75.0,53.4,29.79,ESE,112,2.4,2.4,47,0.00,,---,0.00,VWS V14.00,2013-05-07 18:56:00,
2013-05-07 14:01:00,75.6,54.5,29.79,East,90,4.4,4.7,48,0.00,,---,0.00,VWS V14.00,2013-05-07 19:01:00,
2013-05-07 14:06:00,75.6,52.8,29.79,NW,315,3.8,3.8,45,0.00,,---,0.00,VWS V14.00,2013-05-07 19:06:00,
2013-05-07 14:11:00,75.0,52.9,29.79,North,0,3.8,3.8,46,0.00,,---,0.00,VWS V14.00,2013-05-07 19:11:00,
2013-05-07 14:16:00,75.4,53.2,29.79,South,180,3.5,3.6,46,0.00,,---,0.00,VWS V14.00,2013-05-07 19:16:00,
2013-05-07 14:21:00,75.7,53.5,29.79,North,0,6.3,6.3,46,0.00,,---,0.00,VWS V14.00,2013-05-07 19:21:00,
2013-05-07 14:26:00,75.6,52.8,29.79,North,0,4.9,5.4,45,0.00,,---,0.00,VWS V14.00,2013-05-07 19:26:00,
2013-05-07 14:31:00,75.6,53.3,29.79,ESE,112,4.9,4.9,46,0.00,,---,0.00,VWS V14.00,2013-05-07 19:31:00,
2013-05-07 14:37:00,76.3,54.0,29.79,North,0,4.4,4.4,46,0.00,,---,0.00,VWS V14.00,2013-05-07 19:37:00,
2013-05-07 14:42:00,76.1,52.6,29.79,North,0,1.0,2.2,44,0.00,,---,0.00,VWS V14.00,2013-05-07 19:42:00,
2013-05-07 14:47:00,75.7,52.3,29.79,NNW,338,1.0,3.4,44,0.00,,---,0.00,VWS V14.00,2013-05-07 19:47:00,
2013-05-07 14:52:00,75.2,51.2,29.79,NNW,338,2.1,2.1,43,0.00,,---,0.00,VWS V14.00,2013-05-07 19:52:00,
2013-05-07 14:58:00,75.4,52.0,29.79,SSE,158,5.5,5.5,44,0.00,,---,0.00,VWS V14.00,2013-05-07 19:58:00,
2013-05-07 15:04:00,75.7,51.7,29.79,SE,135,4.1,4.3,43,0.00,,---,0.00,VWS V14.00,2013-05-07 20:04:00,
2013-05-07 15:09:00,75.4,50.7,29.79,ENE,68,4.1,4.1,42,0.00,,---,0.00,VWS V14.00,2013-05-07 20:09:00,
2013-05-07 15:15:00,75.2,51.8,29.79,NW,315,2.7,2.7,44,0.00,,---,0.00,VWS V14.00,2013-05-07 20:15:00,
2013-05-07 15:21:00,74.8,50.9,29.79,North,0,4.9,4.9,43,0.00,,---,0.00,VWS V14.00,2013-05-07 20:21:00,
2013-05-07 15:26:00,74.5,51.2,29.79,North,0,3.8,3.8,44,0.00,,---,0.00,VWS V14.00,2013-05-07 20:26:00,
2013-05-07 15:31:00,74.7,51.3,29.79,North,0,2.4,2.4,44,0.00,,---,0.00,VWS V14.00,2013-05-07 20:31:00,
2013-05-07 15:36:00,75.0,49.8,29.79,NNW,338,2.7,2.7,41,0.00,,---,0.00,VWS V14.00,2013-05-07 20:36:00,
2013-05-07 15:41:00,75.2,49.9,29.79,SSE,158,2.4,2.9,41,0.00,,---,0.00,VWS V14.00,2013-05-07 20:41:00,
2013-05-07 15:47:00,75.4,49.4,29.76,NNE,22,2.7,2.7,40,0.00,,---,0.00,VWS V14.00,2013-05-07 20:47:00,
2013-05-07 15:52:00,75.6,48.9,29.76,ESE,112,6.6,6.6,39,0.00,,---,0.00,VWS V14.00,2013-05-07 20:52:00,
2013-05-07 15:57:00,75.7,49.7,29.76,WNW,292,2.1,2.7,40,0.00,,---,0.00,VWS V14.00,2013-05-07 20:57:00,
2013-05-07 16:02:00,75.9,49.9,29.79,SE,135,6.0,6.0,40,0.00,,---,0.00,VWS V14.00,2013-05-07 21:02:00,
2013-05-07 16:08:00,76.1,49.4,29.79,ESE,112,2.4,2.4,39,0.00,,---,0.00,VWS V14.00,2013-05-07 21:08:00,
2013-05-07 16:13:00,75.7,49.7,29.79,SSW,202,2.7,2.7,40,0.00,,---,0.00,VWS V14.00,2013-05-07 21:13:00,
2013-05-07 16:18:00,75.6,50.2,29.76,SSW,202,5.2,5.2,41,0.00,,---,0.00,VWS V14.00,2013-05-07 21:18:00,
2013-05-07 16:23:00,75.6,50.9,29.76,SSE,158,4.6,4.6,42,0.00,,---,0.00,VWS V14.00,2013-05-07 21:23:00,
2013-05-07 16:29:00,75.2,50.6,29.76,South,180,2.7,2.9,42,0.00,,---,0.00,VWS V14.00,2013-05-07 21:29:00,
2013-05-07 16:34:00,75.6,50.2,29.76,SSE,158,4.6,4.6,41,0.00,,---,0.00,VWS V14.00,2013-05-07 21:34:00,
2013-05-07 16:39:00,75.7,49.7,29.76,WNW,292,2.4,2.4,40,0.00,,---,0.00,VWS V14.00,2013-05-07 21:39:00,
2013-05-07 16:44:00,75.4,50.1,29.76,SW,225,4.6,4.6,41,0.00,,---,0.00,VWS V14.00,2013-05-07 21:44:00,
2013-05-07 16:50:00,75.6,49.6,29.76,NNW,338,2.1,2.1,40,0.00,,---,0.00,VWS V14.00,2013-05-07 21:50:00,
2013-05-07 16:56:00,75.6,50.2,29.76,NW,315,3.5,3.5,41,0.00,,---,0.00,VWS V14.00,2013-05-07 21:56:00,
2013-05-07 17:01:00,75.9,51.2,29.76,South,180,5.2,5.2,42,0.00,,---,0.00,VWS V14.00,2013-05-07 22:01:00,
2013-05-07 17:06:00,76.3,50.9,29.76,WSW,248,2.7,2.7,41,0.00,,---,0.00,VWS V14.00,2013-05-07 22:06:00,
2013-05-07 17:11:00,76.5,51.0,29.76,South,180,3.5,3.5,41,0.00,,---,0.00,VWS V14.00,2013-05-07 22:11:00,
2013-05-07 17:17:00,76.8,51.4,29.76,NNW,338,1.0,0.0,41,0.00,,---,0.00,VWS V14.00,2013-05-07 22:17:00,
2013-05-07 17:22:00,76.5,50.4,29.76,NW,315,2.1,2.1,40,0.00,,---,0.00,VWS V14.00,2013-05-07 22:22:00,
2013-05-07 17:27:00,75.9,49.9,29.76,NW,315,2.4,2.4,40,0.00,,---,0.00,VWS V14.00,2013-05-07 22:27:00,
2013-05-07 17:32:00,75.6,49.6,29.76,NW,315,2.4,2.4,40,0.00,,---,0.00,VWS V14.00,2013-05-07 22:32:00,
2013-05-07 17:38:00,74.7,49.4,29.76,NW,315,3.0,3.0,41,0.00,,---,0.00,VWS V14.00,2013-05-07 22:38:00,
2013-05-07 17:43:00,74.1,48.9,29.76,North,0,4.4,4.4,41,0.00,,---,0.00,VWS V14.00,2013-05-07 22:43:00,
2013-05-07 17:49:00,74.1,49.6,29.76,North,0,3.5,3.5,42,0.00,,---,0.00,VWS V14.00,2013-05-07 22:49:00,
2013-05-07 17:54:00,74.1,49.6,29.76,NNW,338,2.1,2.1,42,0.00,,---,0.00,VWS V14.00,2013-05-07 22:54:00,
2013-05-07 17:59:00,74.5,49.9,29.76,North,0,2.1,2.1,42,0.00,,---,0.00,VWS V14.00,2013-05-07 22:59:00,
2013-05-07 18:05:00,74.8,50.9,29.76,SSE,158,2.1,2.9,43,0.00,,---,0.00,VWS V14.00,2013-05-07 23:05:00,
2013-05-07 18:10:00,74.5,50.5,29.76,SE,135,3.0,3.0,43,0.00,,---,0.00,VWS V14.00,2013-05-07 23:10:00,
2013-05-07 18:15:00,74.1,50.2,29.76,ESE,112,3.8,3.8,43,0.00,,---,0.00,VWS V14.00,2013-05-07 23:15:00,
2013-05-07 18:21:00,73.9,50.1,29.76,ESE,112,2.7,2.7,43,0.00,,---,0.00,VWS V14.00,2013-05-07 23:21:00,
2013-05-07 18:27:00,73.4,49.6,29.76,East,90,1.0,2.2,43,0.00,,---,0.00,VWS V14.00,2013-05-07 23:27:00,
2013-05-07 18:32:00,73.4,50.2,29.76,East,90,1.0,1.0,44,0.00,,---,0.00,VWS V14.00,2013-05-07 23:32:00,
2013-05-07 18:37:00,73.2,50.0,29.76,East,90,1.0,0.0,44,0.00,,---,0.00,VWS V14.00,2013-05-07 23:37:00,
2013-05-07 18:43:00,73.0,49.9,29.76,East,90,1.0,1.0,44,0.00,,---,0.00,VWS V14.00,2013-05-07 23:43:00,
2013-05-07 18:48:00,72.9,50.3,29.76,East,90,1.0,0.0,45,0.00,,---,0.00,VWS V14.00,2013-05-07 23:48:00,
2013-05-07 18:54:00,72.5,51.2,29.76,WSW,248,1.0,0.0,47,0.00,,---,0.00,VWS V14.00,2013-05-07 23:54:00,
2013-05-07 18:59:00,72.1,50.8,29.76,WSW,248,1.0,1.1,47,0.00,,---,0.00,VWS V14.00,2013-05-07 23:59:00,
2013-05-07 19:04:00,71.8,51.1,29.76,WSW,248,1.0,0.0,48,0.00,,---,0.00,VWS V14.00,2013-05-08 00:04:00,
2013-05-07 19:10:00,71.4,51.8,29.76,WSW,248,2.1,2.1,50,0.00,,---,0.00,VWS V14.00,2013-05-08 00:10:00,
2013-05-07 19:15:00,71.1,52.0,29.76,WSW,248,1.0,1.0,51,0.00,,---,0.00,VWS V14.00,2013-05-08 00:15:00,
2013-05-07 19:21:00,70.7,51.7,29.76,West,270,1.0,0.0,51,0.00,,---,0.00,VWS V14.00,2013-05-08 00:21:00,
2013-05-07 19:26:00,70.5,51.5,29.76,West,270,1.0,0.0,51,0.00,,---,0.00,VWS V14.00,2013-05-08 00:26:00,
2013-05-07 19:31:00,70.2,51.7,29.76,West,270,2.4,2.4,52,0.00,,---,0.00,VWS V14.00,2013-05-08 00:31:00,
2013-05-07 19:36:00,69.6,52.3,29.76,West,270,1.0,1.1,54,0.00,,---,0.00,VWS V14.00,2013-05-08 00:36:00,
2013-05-07 19:42:00,69.3,52.4,29.76,West,270,1.0,0.0,55,0.00,,---,0.00,VWS V14.00,2013-05-08 00:42:00,
2013-05-07 19:47:00,68.7,52.4,29.76,West,270,1.0,1.3,56,0.00,,---,0.00,VWS V14.00,2013-05-08 00:47:00,
2013-05-07 19:52:00,68.2,52.4,29.76,West,270,1.0,0.0,57,0.00,,---,0.00,VWS V14.00,2013-05-08 00:52:00,
2013-05-07 19:57:00,68.0,52.2,29.76,West,270,1.0,0.0,57,0.00,,---,0.00,VWS V14.00,2013-05-08 00:57:00,
2013-05-07 20:02:00,67.5,52.7,29.76,West,270,1.0,0.0,59,0.00,,---,0.00,VWS V14.00,2013-05-08 01:02:00,
2013-05-07 20:07:00,67.1,52.8,29.76,WNW,292,3.0,3.0,60,0.00,,---,0.00,VWS V14.00,2013-05-08 01:07:00,
2013-05-07 20:13:00,66.7,52.4,29.76,NW,315,1.0,1.6,60,0.00,,---,0.00,VWS V14.00,2013-05-08 01:13:00,
2013-05-07 20:18:00,66.6,52.7,29.79,NW,315,3.0,3.0,61,0.00,,---,0.00,VWS V14.00,2013-05-08 01:18:00,
2013-05-07 20:23:00,66.2,53.2,29.79,NW,315,2.1,2.1,63,0.00,,---,0.00,VWS V14.00,2013-05-08 01:23:00,
2013-05-07 20:28:00,66.0,53.9,29.79,NW,315,2.1,2.1,65,0.00,,---,0.00,VWS V14.00,2013-05-08 01:28:00,
2013-05-07 20:34:00,65.7,54.0,29.79,NW,315,2.7,2.7,66,0.00,,---,0.00,VWS V14.00,2013-05-08 01:34:00,
2013-05-07 20:39:00,65.5,53.8,29.79,NW,315,1.0,0.0,66,0.00,,---,0.00,VWS V14.00,2013-05-08 01:39:00,
2013-05-07 20:44:00,65.3,54.1,29.79,NW,315,2.1,2.1,67,0.00,,---,0.00,VWS V14.00,2013-05-08 01:44:00,
2013-05-07 20:49:00,65.1,54.3,29.79,NW,315,1.0,0.0,68,0.00,,---,0.00,VWS V14.00,2013-05-08 01:49:00,
2013-05-07 20:55:00,64.8,54.4,29.79,NW,315,1.0,0.0,69,0.00,,---,0.00,VWS V14.00,2013-05-08 01:55:00,
2013-05-07 21:00:00,64.6,54.2,29.79,NW,315,2.4,2.4,69,0.00,,---,0.00,VWS V14.00,2013-05-08 02:00:00,
2013-05-07 21:05:00,64.2,54.2,29.79,NW,315,3.0,3.0,70,0.00,,---,0.00,VWS V14.00,2013-05-08 02:05:00,
2013-05-07 21:10:00,64.0,54.5,29.79,NW,315,2.4,2.4,71,0.00,,---,0.00,VWS V14.00,2013-05-08 02:10:00,
2013-05-07 21:16:00,63.9,54.3,29.79,NW,315,1.0,0.0,71,0.00,,---,0.00,VWS V14.00,2013-05-08 02:16:00,
2013-05-07 21:22:00,63.5,54.3,29.79,NW,315,1.0,0.0,72,0.00,,---,0.00,VWS V14.00,2013-05-08 02:22:00,
2013-05-07 21:27:00,63.3,54.5,29.79,NW,315,1.0,0.0,73,0.00,,---,0.00,VWS V14.00,2013-05-08 02:27:00,
2013-05-07 21:33:00,63.0,54.2,29.79,NW,315,1.0,0.0,73,0.00,,---,0.00,VWS V14.00,2013-05-08 02:33:00,
2013-05-07 21:39:00,63.0,54.2,29.79,NW,315,1.0,0.0,73,0.00,,---,0.00,VWS V14.00,2013-05-08 02:39:00,
2013-05-07 21:44:00,62.6,54.2,29.79,NW,315,1.0,0.0,74,0.00,,---,0.00,VWS V14.00,2013-05-08 02:44:00,
2013-05-07 21:50:00,62.4,54.4,29.79,NW,315,1.0,0.0,75,0.00,,---,0.00,VWS V14.00,2013-05-08 02:50:00,
2013-05-07 21:55:00,62.2,54.2,29.79,NW,315,1.0,0.0,75,0.00,,---,0.00,VWS V14.00,2013-05-08 02:55:00,
2013-05-07 22:00:00,61.9,54.2,29.79,NW,315,2.7,2.7,76,0.00,,---,0.00,VWS V14.00,2013-05-08 03:00:00,
2013-05-07 22:06:00,61.7,54.1,29.79,NW,315,1.0,0.0,76,0.00,,---,0.00,VWS V14.00,2013-05-08 03:06:00,
2013-05-07 22:11:00,61.7,54.1,29.79,NW,315,2.7,2.7,76,0.00,,---,0.00,VWS V14.00,2013-05-08 03:11:00,
2013-05-07 22:17:00,61.3,54.1,29.79,NW,315,1.0,0.0,77,0.00,,---,0.00,VWS V14.00,2013-05-08 03:17:00,
2013-05-07 22:22:00,61.3,54.1,29.79,NW,315,1.0,0.0,77,0.00,,---,0.00,VWS V14.00,2013-05-08 03:22:00,
2013-05-07 22:27:00,61.0,54.1,29.79,NW,315,1.0,0.0,78,0.00,,---,0.00,VWS V14.00,2013-05-08 03:27:00,
2013-05-07 22:33:00,60.8,53.9,29.79,NW,315,1.0,0.0,78,0.00,,---,0.00,VWS V14.00,2013-05-08 03:33:00,
2013-05-07 22:38:00,60.6,53.7,29.79,NW,315,3.0,3.0,78,0.00,,---,0.00,VWS V14.00,2013-05-08 03:38:00,
2013-05-07 22:43:00,60.3,53.4,29.79,NW,315,1.0,0.0,78,0.00,,---,0.00,VWS V14.00,2013-05-08 03:43:00,
2013-05-07 22:48:00,60.1,53.6,29.79,NW,315,1.0,0.0,79,0.00,,---,0.00,VWS V14.00,2013-05-08 03:48:00,
2013-05-07 22:53:00,60.1,53.6,29.79,NW,315,1.0,0.0,79,0.00,,---,0.00,VWS V14.00,2013-05-08 03:53:00,
2013-05-07 22:58:00,59.9,53.4,29.79,NW,315,1.0,0.0,79,0.00,,---,0.00,VWS V14.00,2013-05-08 03:58:00,
2013-05-07 23:01:00,59.9,53.4,29.79,NW,315,1.0,0.0,79,0.00,,---,0.00,VWS V14.00,2013-05-08 04:01:00,
2013-05-07 23:02:00,59.9,53.7,29.79,NW,315,1.0,0.0,80,0.00,,---,0.00,VWS V14.00,2013-05-08 04:02:00,
2013-05-07 23:08:00,59.5,53.4,29.79,NW,315,3.0,3.0,80,0.00,,---,0.00,VWS V14.00,2013-05-08 04:08:00,
2013-05-07 23:10:00,59.5,53.4,29.79,NW,315,3.0,3.0,80,0.00,,---,0.00,VWS V14.00,2013-05-08 04:10:00,
2013-05-07 23:15:00,59.4,53.2,29.79,NW,315,3.0,3.0,80,0.00,,---,0.00,VWS V14.00,2013-05-08 04:15:00,
2013-05-07 23:20:00,59.2,53.0,29.79,NW,315,1.0,1.3,80,0.00,,---,0.00,VWS V14.00,2013-05-08 04:20:00,
2013-05-07 23:21:00,59.2,53.0,29.79,NW,315,2.4,2.4,80,0.00,,---,0.00,VWS V14.00,2013-05-08 04:21:00,
2013-05-07 23:26:00,59.0,53.2,29.79,NW,315,1.0,0.0,81,0.00,,---,0.00,VWS V14.00,2013-05-08 04:26:00,
2013-05-07 23:31:00,58.8,53.0,29.79,NW,315,2.1,2.1,81,0.00,,---,0.00,VWS V14.00,2013-05-08 04:31:00,
2013-05-07 23:37:00,58.8,53.3,29.79,NW,315,1.0,0.0,82,0.00,,---,0.00,VWS V14.00,2013-05-08 04:37:00,
2013-05-07 23:43:00,58.6,53.2,29.79,NW,315,1.0,1.0,82,0.00,,---,0.00,VWS V14.00,2013-05-08 04:43:00,
2013-05-07 23:48:00,58.5,53.0,29.79,NW,315,1.0,0.0,82,0.00,,---,0.00,VWS V14.00,2013-05-08 04:48:00,
2013-05-07 23:53:00,58.5,53.0,29.79,NW,315,1.0,0.0,82,0.00,,---,0.00,VWS V14.00,2013-05-08 04:53:00,
2013-05-07 23:58:00,58.1,52.6,29.79,NW,315,1.0,0.0,82,0.00,,---,0.00,VWS V14.00,2013-05-08 04:58:00,